Mon Ta — WDG3264 — position and weather

sailwx.info

Track history (hours):
 
Tides and Currents Weather Stations Pressure Air Temp Water Temp Dewpoint Dewpoint Depression Visibility Wind Speed Wind Dir Waves Ship Positions

Mon Ta

Owner: LA Carriers, LLC, Cut Off, LA. More information available from US FCC via Universal Licensing System and Coast Guard Vessel Documentation Center.

Last reported at 2017-Oct-01 11:39 UTC. Time now 2017-Nov-22 01:37 UTC.
Position N 30°23' W 086°55'.
Warning: this ship's position is 51 days out of date.

Length 23 m; draft 3 m.

Type: Towing. MMSI: 367524240.

Date/timePositionNaut miles runAvg speedWind from/ knotsBaromVisibWave heightAir tempDewpointWater temp
2017-Oct-01 11:39N 30°23' W 086°55'1 4.6
2017-Oct-01 11:30N 30°23' W 086°55'1 2.0
2017-Oct-01 11:01N 30°24' W 086°53'0 0.0
2017-Oct-01 10:30N 30°24' W 086°53'2 4.1
2017-Oct-01 10:01N 30°24' W 086°51'1 2.1
2017-Oct-01 09:31N 30°24' W 086°50'1 2.3
2017-Oct-01 09:01N 30°24' W 086°49'2 4.3
2017-Oct-01 08:31N 30°24' W 086°46'9 4.2
2017-Oct-01 06:27N 30°24' W 086°36'2 4.4
2017-Oct-01 06:00N 30°24' W 086°34'3 4.8
2017-Oct-01 05:26N 30°25' W 086°31'2 4.8
2017-Oct-01 05:00N 30°26' W 086°29'3 5.3
2017-Oct-01 04:30N 30°26' W 086°26'3 5.2
2017-Oct-01 04:00N 30°26' W 086°23'2 5.0
2017-Oct-01 03:31N 30°26' W 086°20'  
2017-Sep-28 15:29N 30°26' W 086°14'2 4.8
2017-Sep-28 15:00N 30°26' W 086°16'3 5.2
2017-Sep-28 14:30N 30°26' W 086°19'3 5.4
2017-Sep-28 14:00N 30°26' W 086°22'3 5.6
2017-Sep-28 13:30N 30°26' W 086°26'2 4.1
2017-Sep-28 13:00N 30°26' W 086°28'0 0.3
2017-Sep-28 12:30N 30°26' W 086°28'4 3.5
2017-Sep-28 11:30N 30°25' W 086°32'3 5.1
2017-Sep-28 10:56N 30°24' W 086°35'8 5.1
2017-Sep-28 09:27N 30°24' W 086°44'2 5.0
2017-Sep-28 09:00N 30°24' W 086°47'3 5.3
2017-Sep-28 08:31N 30°24' W 086°50'4 5.1
2017-Sep-28 07:49N 30°24' W 086°54'  
Track history (hours):
 
Tides and Currents Weather Stations Pressure Air Temp Water Temp Dewpoint Dewpoint Depression Visibility Wind Speed Wind Dir Waves Ship Positions

Mon Ta

Owner: LA Carriers, LLC, Cut Off, LA. More information available from US FCC via Universal Licensing System and Coast Guard Vessel Documentation Center.

Last reported at 2017-Oct-01 11:39 UTC. Time now 2017-Nov-22 01:37 UTC.
Position N 30°23' W 086°55'.
Warning: this ship's position is 51 days out of date.

Length 23 m; draft 3 m.

Type: Towing. MMSI: 367524240.

Date/timePositionNaut miles runAvg speedWind from/ knotsBaromVisibWave heightAir tempDewpointWater temp
2017-Oct-01 11:39N 30°23' W 086°55'1 4.6
2017-Oct-01 11:30N 30°23' W 086°55'1 2.0
2017-Oct-01 11:01N 30°24' W 086°53'0 0.0
2017-Oct-01 10:30N 30°24' W 086°53'2 4.1
2017-Oct-01 10:01N 30°24' W 086°51'1 2.1
2017-Oct-01 09:31N 30°24' W 086°50'1 2.3
2017-Oct-01 09:01N 30°24' W 086°49'2 4.3
2017-Oct-01 08:31N 30°24' W 086°46'9 4.2
2017-Oct-01 06:27N 30°24' W 086°36'2 4.4
2017-Oct-01 06:00N 30°24' W 086°34'3 4.8
2017-Oct-01 05:26N 30°25' W 086°31'2 4.8
2017-Oct-01 05:00N 30°26' W 086°29'3 5.3
2017-Oct-01 04:30N 30°26' W 086°26'3 5.2
2017-Oct-01 04:00N 30°26' W 086°23'2 5.0
2017-Oct-01 03:31N 30°26' W 086°20'  
2017-Sep-28 15:29N 30°26' W 086°14'2 4.8
2017-Sep-28 15:00N 30°26' W 086°16'3 5.2
2017-Sep-28 14:30N 30°26' W 086°19'3 5.4
2017-Sep-28 14:00N 30°26' W 086°22'3 5.6
2017-Sep-28 13:30N 30°26' W 086°26'2 4.1
2017-Sep-28 13:00N 30°26' W 086°28'0 0.3
2017-Sep-28 12:30N 30°26' W 086°28'4 3.5
2017-Sep-28 11:30N 30°25' W 086°32'3 5.1
2017-Sep-28 10:56N 30°24' W 086°35'8 5.1
2017-Sep-28 09:27N 30°24' W 086°44'2 5.0
2017-Sep-28 09:00N 30°24' W 086°47'3 5.3
2017-Sep-28 08:31N 30°24' W 086°50'4 5.1
2017-Sep-28 07:49N 30°24' W 086°54'  

Dump ship's entire track history